Time;durP1;ratioP1;P1;durP2;ratioP2;P2;SDS_P1;SDS_P2;PMS_P1;PMS_P2;Temp;Humidity;BMP_temperature;BMP_pressure;BME280_temperature;BME280_humidity;BME280_pressure;Samples;Min_cycle;Max_cycle;Signal;HPM_P1;HPM_P2
2021/04/01 00:01:53;;;;;;;;;;;15.70;86.70;;;;;;4879901;29;19924;-84
2021/04/01 00:04:19;;;;;;;;;;;15.60;86.70;;;;;;4879383;29;19931;-83
2021/04/01 00:06:44;;;;;;;;;;;15.50;86.70;;;;;;4879087;29;19952;-84
2021/04/01 00:09:10;;;;;;;;;;;15.50;86.80;;;;;;4879323;29;19963;-84
2021/04/01 00:11:36;;;;;;;;;;;15.50;86.80;;;;;;4862092;29;19928;-84
2021/04/01 00:14:03;;;;;;;;;;;15.40;86.70;;;;;;4860286;29;19924;-84
2021/04/01 00:16:30;;;;;;;;;;;15.40;86.90;;;;;;4861088;29;19924;-84
2021/04/01 00:18:55;;;;;;;;;;;15.40;86.70;;;;;;4861090;29;19932;-84
2021/04/01 00:21:21;;;;;;;;;;;15.30;86.60;;;;;;4860063;29;19928;-84
2021/04/01 00:23:47;;;;;;;;;;;15.30;86.90;;;;;;4860921;29;19952;-84
2021/04/01 00:26:12;;;;;;;;;;;15.20;86.80;;;;;;4860820;29;19982;-84
2021/04/01 00:28:38;;;;;;;;;;;15.10;86.70;;;;;;4866026;29;19923;-84
2021/04/01 00:31:03;;;;;;;;;;;15.10;86.90;;;;;;4879102;29;19931;-84
2021/04/01 00:33:29;;;;;;;;;;;15.10;86.80;;;;;;4879657;29;19947;-84
2021/04/01 00:35:55;;;;;;;;;;;15.00;86.60;;;;;;4867657;29;19931;-84
2021/04/01 00:38:20;;;;;;;;;;;15.00;86.70;;;;;;4860523;29;20290;-84
2021/04/01 00:40:46;;;;;;;;;;;15.00;86.70;;;;;;4861270;29;19924;-84
2021/04/01 00:43:12;;;;;;;;;;;14.90;86.70;;;;;;4859897;29;20391;-84
2021/04/01 00:45:37;;;;;;;;;;;14.90;86.70;;;;;;4863359;29;19928;-84
2021/04/01 00:48:03;;;;;;;;;;;14.90;86.60;;;;;;4864020;29;20006;-84
2021/04/01 00:50:30;;;;;;;;;;;14.80;86.60;;;;;;4864437;29;19931;-84
2021/04/01 00:52:56;;;;;;;;;;;14.80;86.70;;;;;;4882049;29;19931;-84
2021/04/01 00:55:22;;;;;;;;;;;14.80;86.70;;;;;;4881860;29;19935;-83
2021/04/01 00:57:50;;;;;;;;;;;14.80;86.60;;;;;;4882421;29;19931;-84
2021/04/01 01:00:17;;;;;;;;;;;14.70;86.70;;;;;;4882933;29;19930;-84
2021/04/01 01:02:43;;;;;;;;;;;14.70;86.70;;;;;;4882123;29;19924;-83
2021/04/01 01:05:10;;;;;;;;;;;14.70;86.70;;;;;;4882386;29;20288;-84
2021/04/01 01:07:35;;;;;;;;;;;14.60;86.50;;;;;;4882841;29;19931;-83
2021/04/01 01:10:05;;;;;;;;;;;14.60;86.50;;;;;;4881763;29;19923;-83
2021/04/01 01:12:30;;;;;;;;;;;14.60;86.60;;;;;;4882961;29;19924;-83
2021/04/01 01:14:56;;;;;;;;;;;14.60;86.60;;;;;;4882632;29;19923;-83
2021/04/01 01:17:21;;;;;;;;;;;14.50;86.70;;;;;;4881535;29;19974;-84
2021/04/01 01:19:50;;;;;;;;;;;14.50;86.60;;;;;;4882625;29;20402;-83
2021/04/01 01:22:17;;;;;;;;;;;14.50;86.80;;;;;;4869560;29;20055;-84
2021/04/01 01:24:43;;;;;;;;;;;14.50;86.70;;;;;;4863109;29;19924;-83
2021/04/01 01:27:08;;;;;;;;;;;14.40;86.80;;;;;;4865026;29;20372;-83
2021/04/01 01:29:34;;;;;;;;;;;14.40;86.70;;;;;;4864798;29;20326;-83
2021/04/01 01:32:00;;;;;;;;;;;14.40;86.90;;;;;;4863200;29;19988;-83
2021/04/01 01:34:25;;;;;;;;;;;14.40;86.80;;;;;;4863959;29;19983;-83
2021/04/01 01:36:51;;;;;;;;;;;14.40;86.90;;;;;;4863722;29;19927;-83
2021/04/01 01:39:17;;;;;;;;;;;14.30;86.80;;;;;;4868770;29;20613;-83
2021/04/01 01:41:42;;;;;;;;;;;14.30;86.90;;;;;;4884292;29;19947;-83
2021/04/01 01:44:08;;;;;;;;;;;14.30;87.00;;;;;;4873074;29;20292;-84
2021/04/01 01:46:34;;;;;;;;;;;14.20;86.80;;;;;;4872568;29;20092;-83
2021/04/01 01:48:59;;;;;;;;;;;14.20;86.90;;;;;;4870202;29;19928;-84
2021/04/01 01:51:26;;;;;;;;;;;14.20;87.00;;;;;;4870537;29;19931;-83
2021/04/01 01:53:52;;;;;;;;;;;14.20;87.00;;;;;;4871527;29;19930;-83
2021/04/01 01:56:19;;;;;;;;;;;14.10;86.90;;;;;;4871842;29;19924;-83
2021/04/01 01:58:45;;;;;;;;;;;14.10;86.90;;;;;;4875803;29;20660;-83
2021/04/01 02:01:10;;;;;;;;;;;14.10;86.90;;;;;;4874294;29;20463;-83
2021/04/01 02:03:36;;;;;;;;;;;14.10;87.00;;;;;;4880611;29;20023;-83
2021/04/01 02:06:02;;;;;;;;;;;14.10;87.10;;;;;;4879129;29;19927;-83
2021/04/01 02:08:28;;;;;;;;;;;14.10;87.20;;;;;;4880398;29;20026;-83
2021/04/01 02:10:54;;;;;;;;;;;14.00;87.00;;;;;;4874898;29;20007;-83
2021/04/01 02:13:20;;;;;;;;;;;14.10;87.00;;;;;;4874549;29;20353;-84
2021/04/01 02:15:47;;;;;;;;;;;14.00;87.10;;;;;;4881691;29;19924;-83
2021/04/01 02:18:17;;;;;;;;;;;14.00;87.20;;;;;;4880430;29;20022;-83
2021/04/01 02:20:45;;;;;;;;;;;14.00;87.30;;;;;;4862520;29;19924;-83
2021/04/01 02:23:12;;;;;;;;;;;14.00;87.40;;;;;;4862858;29;19928;-83
2021/04/01 02:25:38;;;;;;;;;;;13.90;87.50;;;;;;4863032;29;19931;-83
2021/04/01 02:28:04;;;;;;;;;;;13.90;87.40;;;;;;4861902;29;19928;-83
2021/04/01 02:30:30;;;;;;;;;;;13.90;87.40;;;;;;4862702;29;19928;-83
2021/04/01 02:32:56;;;;;;;;;;;13.90;87.60;;;;;;4862624;29;20039;-83
2021/04/01 02:35:21;;;;;;;;;;;13.90;87.30;;;;;;4861814;29;19931;-84
2021/04/01 02:37:47;;;;;;;;;;;13.90;87.60;;;;;;4862888;29;20014;-83
2021/04/01 02:40:13;;;;;;;;;;;13.80;87.70;;;;;;4873121;29;19924;-84
2021/04/01 02:42:39;;;;;;;;;;;13.80;87.70;;;;;;4861840;29;19924;-83
2021/04/01 02:45:05;;;;;;;;;;;13.80;87.70;;;;;;4862371;29;19931;-84
2021/04/01 02:47:30;;;;;;;;;;;13.80;87.50;;;;;;4862599;29;19924;-83
2021/04/01 02:49:56;;;;;;;;;;;13.70;87.30;;;;;;4861880;29;20276;-83
2021/04/01 02:52:22;;;;;;;;;;;13.70;87.40;;;;;;4874195;29;19930;-83
2021/04/01 02:54:48;;;;;;;;;;;13.70;87.30;;;;;;4879868;29;20372;-84
2021/04/01 02:57:17;;;;;;;;;;;13.60;87.20;;;;;;4880674;29;19953;-83
2021/04/01 02:59:46;;;;;;;;;;;13.60;87.40;;;;;;4864579;29;20307;-83
2021/04/01 03:02:13;;;;;;;;;;;13.60;87.40;;;;;;4860865;29;20014;-83
2021/04/01 03:04:38;;;;;;;;;;;13.50;87.40;;;;;;4862114;29;19932;-84
2021/04/01 03:07:04;;;;;;;;;;;13.50;87.40;;;;;;4861385;29;19981;-83
2021/04/01 03:09:30;;;;;;;;;;;13.50;87.30;;;;;;4861514;29;19924;-83
2021/04/01 03:11:56;;;;;;;;;;;13.40;87.10;;;;;;4865042;29;20038;-83
2021/04/01 03:14:21;;;;;;;;;;;13.40;87.00;;;;;;4880408;29;19966;-84
2021/04/01 03:16:47;;;;;;;;;;;13.40;87.00;;;;;;4879820;29;19930;-84
2021/04/01 03:19:12;;;;;;;;;;;13.30;86.90;;;;;;4865837;29;19920;-83
2021/04/01 03:21:38;;;;;;;;;;;13.30;87.10;;;;;;4868054;29;19923;-83
2021/04/01 03:24:04;;;;;;;;;;;13.30;87.20;;;;;;4879380;29;19931;-84
2021/04/01 03:26:30;;;;;;;;;;;13.30;87.10;;;;;;4880514;29;19919;-83
2021/04/01 03:28:56;;;;;;;;;;;13.20;87.00;;;;;;4880357;29;19924;-83
2021/04/01 03:31:21;;;;;;;;;;;13.20;86.90;;;;;;4879391;29;19928;-83
2021/04/01 03:33:47;;;;;;;;;;;13.20;87.00;;;;;;4866926;29;19924;-83
2021/04/01 03:36:13;;;;;;;;;;;13.20;87.10;;;;;;4861588;29;20391;-83
2021/04/01 03:38:38;;;;;;;;;;;13.10;87.30;;;;;;4873160;29;19990;-83
2021/04/01 03:41:04;;;;;;;;;;;13.10;87.10;;;;;;4879785;29;19924;-84
2021/04/01 03:43:30;;;;;;;;;;;13.00;86.90;;;;;;4879680;29;19948;-83
2021/04/01 03:45:55;;;;;;;;;;;13.00;87.00;;;;;;4879317;29;20288;-83
2021/04/01 03:48:21;;;;;;;;;;;12.90;86.80;;;;;;4879807;29;20277;-83
2021/04/01 03:50:47;;;;;;;;;;;12.90;87.00;;;;;;4880161;29;19927;-83
2021/04/01 03:53:12;;;;;;;;;;;12.90;87.00;;;;;;4878802;29;19930;-84
2021/04/01 04:00:41;;;;;;;;;;;12.80;87.20;;;;;;4861645;29;20015;-83
2021/04/01 04:11:00;;;;;;;;;;;12.70;87.30;;;;;;4879445;29;19924;-83
2021/04/01 04:13:37;;;;;;;;;;;12.60;86.90;;;;;;4878028;29;19927;-83
2021/04/01 04:16:02;;;;;;;;;;;12.60;86.80;;;;;;4860797;29;19924;-83
2021/04/01 04:18:28;;;;;;;;;;;12.50;86.50;;;;;;4875478;29;20005;-83
2021/04/01 04:20:54;;;;;;;;;;;12.40;87.00;;;;;;4861306;29;20428;-83
2021/04/01 04:23:20;;;;;;;;;;;12.40;87.00;;;;;;4860884;29;19963;-83
2021/04/01 04:25:46;;;;;;;;;;;12.40;87.30;;;;;;4860639;29;20373;-83
2021/04/01 04:28:22;;;;;;;;;;;12.30;87.10;;;;;;4859743;29;19924;-83
2021/04/01 04:30:47;;;;;;;;;;;12.40;87.40;;;;;;4860949;29;19924;-83
2021/04/01 04:33:13;;;;;;;;;;;12.30;87.40;;;;;;4860351;29;20437;-83
2021/04/01 04:35:39;;;;;;;;;;;12.30;86.90;;;;;;4879400;29;19923;-83
2021/04/01 04:38:04;;;;;;;;;;;12.20;87.00;;;;;;4878868;29;19924;-83
2021/04/01 04:40:30;;;;;;;;;;;12.20;86.70;;;;;;4878605;29;19924;-83
2021/04/01 04:42:56;;;;;;;;;;;12.10;86.40;;;;;;4879577;29;19924;-83
2021/04/01 04:45:21;;;;;;;;;;;12.00;87.20;;;;;;4879402;29;20287;-83
2021/04/01 04:47:47;;;;;;;;;;;12.00;86.00;;;;;;4878717;29;19988;-83
2021/04/01 04:50:15;;;;;;;;;;;11.90;85.50;;;;;;4878807;29;19924;-83
2021/04/01 04:52:41;;;;;;;;;;;11.80;84.60;;;;;;4879178;29;19986;-83
2021/04/01 04:55:11;;;;;;;;;;;11.70;85.40;;;;;;4878582;29;19928;-83
2021/04/01 05:05:52;;;;;;;;;;;11.40;84.50;;;;;;4870003;29;19924;-82
2021/04/01 05:08:19;;;;;;;;;;;11.40;85.30;;;;;;4868390;29;19928;-82
2021/04/01 05:10:44;;;;;;;;;;;11.30;84.90;;;;;;4868746;29;19930;-82
2021/04/01 05:13:11;;;;;;;;;;;11.30;85.60;;;;;;4870564;29;19924;-82
2021/04/01 05:15:39;;;;;;;;;;;11.20;84.90;;;;;;4868037;29;19933;-82
2021/04/01 05:18:30;;;;;;;;;;;11.20;84.70;;;;;;4862730;29;19924;-82
2021/04/01 05:20:58;;;;;;;;;;;11.10;85.10;;;;;;4859947;29;19924;-83
2021/04/01 05:23:37;;;;;;;;;;;11.10;84.60;;;;;;4859815;29;19928;-83
2021/04/01 05:28:51;;;;;;;;;;;10.90;84.70;;;;;;4860459;29;19979;-82
2021/04/01 05:31:19;;;;;;;;;;;10.80;84.80;;;;;;4861339;29;19924;-82
2021/04/01 05:33:47;;;;;;;;;;;10.80;85.70;;;;;;4863813;29;19924;-83
2021/04/01 05:36:20;;;;;;;;;;;10.70;85.60;;;;;;4873035;29;20372;-82
2021/04/01 05:38:45;;;;;;;;;;;10.60;85.10;;;;;;4881397;29;19924;-83
2021/04/01 05:41:11;;;;;;;;;;;10.60;85.80;;;;;;4882204;29;19931;-84
2021/04/01 05:43:44;;;;;;;;;;;10.60;85.90;;;;;;4881610;29;19927;-85
2021/04/01 05:46:26;;;;;;;;;;;10.50;85.20;;;;;;4873930;23;19943;-82
2021/04/01 06:06:05;;;;;;;;;;;10.30;88.10;;;;;;4873049;29;19932;-82
2021/04/01 06:08:35;;;;;;;;;;;10.30;88.70;;;;;;4859982;29;20437;-82
2021/04/01 06:11:01;;;;;;;;;;;10.30;89.10;;;;;;4852959;29;20012;-83
2021/04/01 06:13:28;;;;;;;;;;;10.40;88.00;;;;;;4869178;29;19968;-83
2021/04/01 06:15:53;;;;;;;;;;;10.30;88.30;;;;;;4863626;29;19924;-82
2021/04/01 06:18:21;;;;;;;;;;;10.40;88.60;;;;;;4859598;29;19935;-83
2021/04/01 06:20:48;;;;;;;;;;;10.40;88.90;;;;;;4861296;29;19931;-82
2021/04/01 06:23:23;;;;;;;;;;;10.40;88.70;;;;;;4862082;29;19924;-82
2021/04/01 06:25:53;;;;;;;;;;;10.40;88.20;;;;;;4864988;29;20296;-82
2021/04/01 06:28:22;;;;;;;;;;;10.30;88.40;;;;;;4854376;29;20686;-84
2021/04/01 06:30:58;;;;;;;;;;;10.30;86.90;;;;;;4860916;29;19924;-82
2021/04/01 06:33:25;;;;;;;;;;;10.30;87.70;;;;;;4861453;29;19931;-82
2021/04/01 06:40:45;;;;;;;;;;;10.30;88.20;;;;;;4866222;29;19931;-81
2021/04/01 06:43:24;;;;;;;;;;;10.30;88.00;;;;;;4876311;29;20026;-81
2021/04/01 06:45:58;;;;;;;;;;;10.30;88.50;;;;;;4868161;29;19923;-81
2021/04/01 06:48:26;;;;;;;;;;;10.30;87.80;;;;;;4852546;29;20289;-81
2021/04/01 06:50:58;;;;;;;;;;;10.30;88.00;;;;;;4869568;29;20277;-81
2021/04/01 06:53:38;;;;;;;;;;;10.30;87.90;;;;;;4853680;29;20411;-81
2021/04/01 06:56:22;;;;;;;;;;;10.30;88.40;;;;;;4853942;29;19932;-80
2021/04/01 07:02:13;;;;;;;;;;;10.30;87.00;;;;;;4862742;29;19923;-80
2021/04/01 07:04:40;;;;;;;;;;;10.30;84.90;;;;;;4880628;29;19935;-80
2021/04/01 07:07:10;;;;;;;;;;;10.20;85.90;;;;;;4860096;29;20341;-80
2021/04/01 07:12:10;;;;;;;;;;;10.20;86.70;;;;;;4871971;29;19924;-80
2021/04/01 07:14:38;;;;;;;;;;;10.20;85.20;;;;;;4865957;29;19946;-79
2021/04/01 07:17:12;;;;;;;;;;;10.30;86.70;;;;;;4845332;29;20289;-80
2021/04/01 07:49:16;;;;;;;;;;;10.60;86.10;;;;;;4885437;29;20015;-84
2021/04/01 07:52:20;;;;;;;;;;;10.60;86.90;;;;;;4877045;29;20646;-82
2021/04/01 08:05:26;;;;;;;;;;;10.90;86.60;;;;;;4874539;29;19928;-82
2021/04/01 08:08:01;;;;;;;;;;;10.90;86.50;;;;;;4893859;29;19923;-82
2021/04/01 08:10:29;;;;;;;;;;;11.00;87.20;;;;;;4880744;29;20011;-79
2021/04/01 08:13:01;;;;;;;;;;;11.00;86.90;;;;;;4871200;29;19924;-81
2021/04/01 08:15:28;;;;;;;;;;;11.00;87.20;;;;;;4874650;29;19926;-81
2021/04/01 08:18:05;;;;;;;;;;;11.00;85.90;;;;;;4879327;29;20445;-81
2021/04/01 08:20:33;;;;;;;;;;;11.00;86.60;;;;;;4892426;29;20368;-81
2021/04/01 08:23:22;;;;;;;;;;;11.00;85.00;;;;;;4887509;29;19954;-80
2021/04/01 08:25:59;;;;;;;;;;;10.90;85.20;;;;;;4882142;29;19995;-81
2021/04/01 08:29:17;;;;;;;;;;;10.90;84.20;;;;;;4868711;29;19923;-81
2021/04/01 08:31:55;;;;;;;;;;;10.80;84.90;;;;;;4881283;29;19930;-81
2021/04/01 08:34:14;;;;;;;;;;;10.80;83.90;;;;;;4891738;29;19920;-81
2021/04/01 08:36:45;;;;;;;;;;;10.70;84.40;;;;;;4885407;29;19957;-81
2021/04/01 08:39:11;;;;;;;;;;;10.60;83.70;;;;;;4887042;29;20003;-81
2021/04/01 08:41:50;;;;;;;;;;;10.60;85.20;;;;;;4889463;29;19929;-81
2021/04/01 08:44:25;;;;;;;;;;;10.60;85.30;;;;;;4872005;29;20082;-80
2021/04/01 08:46:53;;;;;;;;;;;10.60;86.30;;;;;;4873853;29;20433;-81
2021/04/01 08:49:31;;;;;;;;;;;10.70;86.70;;;;;;4884214;29;19927;-81
2021/04/01 08:51:57;;;;;;;;;;;10.80;86.30;;;;;;4878703;29;19951;-82
2021/04/01 08:54:29;;;;;;;;;;;10.80;86.00;;;;;;4875722;29;19919;-81
2021/04/01 08:57:09;;;;;;;;;;;10.80;84.70;;;;;;4872402;29;19930;-81
2021/04/01 08:59:50;;;;;;;;;;;10.80;85.60;;;;;;4886638;29;20316;-81
2021/04/01 09:02:22;;;;;;;;;;;10.80;86.80;;;;;;4880932;29;19966;-81
2021/04/01 09:04:49;;;;;;;;;;;10.90;87.30;;;;;;4891318;29;19931;-81
2021/04/01 09:07:24;;;;;;;;;;;11.00;87.10;;;;;;4882220;29;20292;-81
2021/04/01 09:09:51;;;;;;;;;;;11.00;84.50;;;;;;4875965;29;19927;-81
2021/04/01 09:12:40;;;;;;;;;;;11.00;84.40;;;;;;4863958;29;19930;-81
2021/04/01 09:15:07;;;;;;;;;;;10.90;84.40;;;;;;4864713;29;19924;-80
2021/04/01 09:17:34;;;;;;;;;;;11.00;86.20;;;;;;4878785;29;19975;-81
2021/04/01 09:20:12;;;;;;;;;;;11.10;86.10;;;;;;4881922;29;19924;-81
2021/04/01 09:22:52;;;;;;;;;;;11.10;85.40;;;;;;4881767;29;19923;-80
2021/04/01 09:25:18;;;;;;;;;;;11.20;87.00;;;;;;4882256;29;19947;-82
2021/04/01 09:27:44;;;;;;;;;;;11.30;87.50;;;;;;4882136;29;20291;-82
2021/04/01 09:30:10;;;;;;;;;;;11.40;86.60;;;;;;4881342;29;19927;-86
2021/04/01 09:32:37;;;;;;;;;;;11.40;85.00;;;;;;4870747;29;19924;-82
2021/04/01 09:35:03;;;;;;;;;;;11.40;83.50;;;;;;4863645;29;19986;-81
2021/04/01 09:37:30;;;;;;;;;;;11.50;85.00;;;;;;4872138;29;20304;-83
2021/04/01 09:40:11;;;;;;;;;;;11.50;84.80;;;;;;4871399;29;19928;-82
2021/04/01 09:42:42;;;;;;;;;;;11.60;85.50;;;;;;4875885;29;19999;-83
2021/04/01 09:45:08;;;;;;;;;;;11.60;83.40;;;;;;4871795;29;19924;-85
2021/04/01 09:47:37;;;;;;;;;;;11.70;84.90;;;;;;4869635;29;19971;-85
2021/04/01 09:50:05;;;;;;;;;;;11.80;86.20;;;;;;4866744;29;20947;-83
2021/04/01 09:52:31;;;;;;;;;;;11.90;86.60;;;;;;4879947;29;19923;-84
2021/04/01 09:54:58;;;;;;;;;;;12.10;86.70;;;;;;4876539;29;19930;-83
2021/04/01 09:57:37;;;;;;;;;;;12.10;83.70;;;;;;4875147;29;19943;-83
2021/04/01 10:00:08;;;;;;;;;;;12.10;84.40;;;;;;4874266;29;20373;-82
2021/04/01 10:02:34;;;;;;;;;;;12.10;84.30;;;;;;4878514;29;20306;-84
2021/04/01 10:05:04;;;;;;;;;;;12.20;85.00;;;;;;4876763;29;19923;-83
2021/04/01 10:07:36;;;;;;;;;;;12.20;78.90;;;;;;4881477;29;20335;-83
2021/04/01 10:10:03;;;;;;;;;;;12.10;79.60;;;;;;4880743;29;19995;-83
2021/04/01 10:12:36;;;;;;;;;;;12.00;78.40;;;;;;4879049;29;19924;-84
2021/04/01 10:15:06;;;;;;;;;;;12.00;78.70;;;;;;4875029;29;19920;-82
2021/04/01 10:17:32;;;;;;;;;;;11.90;78.80;;;;;;4869178;29;19923;-83
2021/04/01 10:19:58;;;;;;;;;;;11.90;80.40;;;;;;4880469;29;20373;-83
2021/04/01 10:22:25;;;;;;;;;;;12.00;81.40;;;;;;4881505;29;19973;-83
2021/04/01 10:25:11;;;;;;;;;;;12.00;80.40;;;;;;4880105;29;19952;-87
2021/04/01 10:27:43;;;;;;;;;;;12.10;78.00;;;;;;4880757;29;20364;-86
2021/04/01 10:30:09;;;;;;;;;;;12.00;76.80;;;;;;4881179;29;19971;-83
2021/04/01 10:33:01;;;;;;;;;;;12.00;77.60;;;;;;4880523;29;19948;-83
2021/04/01 10:35:28;;;;;;;;;;;12.00;77.60;;;;;;4864445;29;20007;-86
2021/04/01 10:40:30;;;;;;;;;;;12.20;80.00;;;;;;4917885;23;20368;-82
2021/04/01 10:43:06;;;;;;;;;;;12.30;79.20;;;;;;4867754;29;20019;-83
2021/04/01 10:45:36;;;;;;;;;;;12.30;79.10;;;;;;4876815;29;20011;-82
2021/04/01 10:48:18;;;;;;;;;;;12.40;81.10;;;;;;4880088;29;19923;-82
2021/04/01 10:50:44;;;;;;;;;;;12.60;82.30;;;;;;4862364;29;19928;-82
2021/04/01 10:53:23;;;;;;;;;;;12.60;77.70;;;;;;4867790;29;20385;-83
2021/04/01 10:55:49;;;;;;;;;;;12.70;81.00;;;;;;4876167;29;19995;-82
2021/04/01 10:58:15;;;;;;;;;;;12.90;81.50;;;;;;4871617;29;20403;-83
2021/04/01 11:00:50;;;;;;;;;;;12.90;78.90;;;;;;4878842;29;20011;-82
2021/04/01 11:03:16;;;;;;;;;;;12.90;77.00;;;;;;4874338;29;19924;-83
2021/04/01 11:05:42;;;;;;;;;;;12.90;74.40;;;;;;4881469;29;19930;-82
2021/04/01 11:08:09;;;;;;;;;;;12.90;75.30;;;;;;4879443;29;19927;-82
2021/04/01 11:10:36;;;;;;;;;;;12.90;73.70;;;;;;4888571;29;19927;-82
2021/04/01 11:13:02;;;;;;;;;;;12.90;76.70;;;;;;4886643;29;20317;-82
2021/04/01 11:15:28;;;;;;;;;;;12.90;75.70;;;;;;4869240;29;19924;-82
2021/04/01 11:17:59;;;;;;;;;;;12.90;74.20;;;;;;4871871;29;19931;-83
2021/04/01 11:20:27;;;;;;;;;;;12.80;73.60;;;;;;4875022;29;19931;-82
2021/04/01 11:22:59;;;;;;;;;;;12.80;74.30;;;;;;4868683;29;19924;-82
2021/04/01 11:25:24;;;;;;;;;;;12.90;76.00;;;;;;4871097;29;19927;-80
2021/04/01 11:27:54;;;;;;;;;;;13.00;76.70;;;;;;4885328;29;19969;-80
2021/04/01 11:30:20;;;;;;;;;;;13.10;75.60;;;;;;4885376;29;19927;-79
2021/04/01 11:32:53;;;;;;;;;;;13.00;73.60;;;;;;4876275;29;20462;-78
2021/04/01 11:35:23;;;;;;;;;;;13.00;74.20;;;;;;4875875;29;20060;-79
2021/04/01 11:37:51;;;;;;;;;;;13.00;74.00;;;;;;4870519;29;19955;-79
2021/04/01 11:40:17;;;;;;;;;;;13.00;74.90;;;;;;4875617;29;19932;-78
2021/04/01 11:42:53;;;;;;;;;;;13.00;72.10;;;;;;4879882;29;19930;-77
2021/04/01 11:45:28;;;;;;;;;;;12.90;70.50;;;;;;4872941;29;19928;-78
2021/04/01 11:47:54;;;;;;;;;;;13.00;78.00;;;;;;4883760;29;19934;-77
2021/04/01 11:50:20;;;;;;;;;;;13.10;77.70;;;;;;4876091;29;19924;-77
2021/04/01 11:52:45;;;;;;;;;;;13.10;71.80;;;;;;4888777;29;19930;-77
2021/04/01 11:55:12;;;;;;;;;;;13.00;73.00;;;;;;4883340;29;20020;-77
2021/04/01 11:57:42;;;;;;;;;;;13.00;72.10;;;;;;4878478;29;19988;-78
2021/04/01 12:00:16;;;;;;;;;;;13.00;72.90;;;;;;4881781;29;19924;-77
2021/04/01 12:03:01;;;;;;;;;;;13.00;76.10;;;;;;4879972;29;19938;-77
2021/04/01 12:05:30;;;;;;;;;;;13.20;73.70;;;;;;4873816;29;19931;-77
2021/04/01 12:07:56;;;;;;;;;;;13.20;77.40;;;;;;4872516;29;19928;-78
2021/04/01 12:10:22;;;;;;;;;;;13.20;75.30;;;;;;4873069;29;19998;-78
2021/04/01 12:12:54;;;;;;;;;;;13.30;77.10;;;;;;4891396;29;19970;-78
2021/04/01 12:15:29;;;;;;;;;;;13.40;76.30;;;;;;4880956;29;19928;-78
2021/04/01 12:17:55;;;;;;;;;;;13.60;78.40;;;;;;4890077;29;19929;-78
2021/04/01 12:20:21;;;;;;;;;;;13.60;75.50;;;;;;4889302;29;19951;-78
2021/04/01 12:22:47;;;;;;;;;;;13.70;79.00;;;;;;4874696;29;20339;-78
2021/04/01 12:25:15;;;;;;;;;;;13.80;78.50;;;;;;4871073;29;19919;-78
2021/04/01 12:27:48;;;;;;;;;;;13.80;73.20;;;;;;4880327;29;19923;-78
2021/04/01 12:30:19;;;;;;;;;;;13.70;70.40;;;;;;4891741;29;20372;-78
2021/04/01 12:32:47;;;;;;;;;;;13.70;72.80;;;;;;4881573;29;19924;-78
2021/04/01 12:35:14;;;;;;;;;;;13.70;73.30;;;;;;4874504;29;19924;-79
2021/04/01 12:37:41;;;;;;;;;;;13.70;75.10;;;;;;4877880;29;19923;-78
2021/04/01 12:40:13;;;;;;;;;;;13.80;76.90;;;;;;4893668;29;19928;-79
2021/04/01 12:42:38;;;;;;;;;;;13.90;75.40;;;;;;4891708;29;19923;-80
2021/04/01 12:45:14;;;;;;;;;;;13.90;74.00;;;;;;4889080;29;20014;-79
2021/04/01 12:47:41;;;;;;;;;;;13.80;65.90;;;;;;4875982;29;19923;-80
2021/04/01 12:50:07;;;;;;;;;;;13.70;69.60;;;;;;4895453;29;20348;-80
2021/04/01 12:52:46;;;;;;;;;;;13.80;75.30;;;;;;4892778;29;19923;-79
2021/04/01 12:55:15;;;;;;;;;;;13.80;74.00;;;;;;4878056;29;19919;-79
2021/04/01 12:57:41;;;;;;;;;;;14.00;76.70;;;;;;4876710;29;19924;-79
2021/04/01 13:00:09;;;;;;;;;;;14.10;77.70;;;;;;4900354;29;20022;-79
2021/04/01 13:02:34;;;;;;;;;;;14.20;76.10;;;;;;4894048;29;19923;-80
2021/04/01 13:05:03;;;;;;;;;;;14.20;72.00;;;;;;4874521;29;19975;-84
2021/04/01 13:07:46;;;;;;;;;;;14.20;73.60;;;;;;4893906;29;20370;-84
2021/04/01 13:12:46;;;;;;;;;;;14.00;71.70;;;;;;4891068;29;19924;-80
2021/04/01 13:15:12;;;;;;;;;;;13.90;69.10;;;;;;4894362;29;19920;-80
2021/04/01 13:17:38;;;;;;;;;;;13.90;70.90;;;;;;4898089;29;19931;-80
2021/04/01 13:20:04;;;;;;;;;;;13.90;75.70;;;;;;4882191;29;19923;-80
2021/04/01 13:22:44;;;;;;;;;;;13.90;72.40;;;;;;4872639;29;19919;-82
2021/04/01 13:25:18;;;;;;;;;;;14.00;76.50;;;;;;4880926;29;19930;-81
2021/04/01 13:27:45;;;;;;;;;;;14.20;79.00;;;;;;4884199;29;19978;-81
2021/04/01 13:30:11;;;;;;;;;;;14.20;76.30;;;;;;4869083;29;19931;-80
2021/04/01 13:35:11;;;;;;;;;;;14.20;72.00;;;;;;4880642;29;19966;-81
2021/04/01 13:37:44;;;;;;;;;;;14.10;69.90;;;;;;4882585;29;19931;-81
2021/04/01 13:40:13;;;;;;;;;;;13.80;69.80;;;;;;4895050;29;19924;-81
2021/04/01 13:42:46;;;;;;;;;;;13.60;72.70;;;;;;4890292;29;20471;-81
2021/04/01 13:45:14;;;;;;;;;;;13.60;73.50;;;;;;4886986;29;20365;-81
2021/04/01 13:47:42;;;;;;;;;;;13.60;69.00;;;;;;4880746;29;19975;-82
2021/04/01 13:50:11;;;;;;;;;;;13.40;69.40;;;;;;4885620;29;19923;-81
2021/04/01 13:53:04;;;;;;;;;;;13.20;72.00;;;;;;4891175;29;20436;-81
2021/04/01 13:55:35;;;;;;;;;;;13.10;69.60;;;;;;4895662;29;20010;-81
2021/04/01 14:01:05;;;;;;;;;;;13.10;76.70;;;;;;4890620;29;20291;-81
2021/04/01 14:04:00;;;;;;;;;;;13.30;81.30;;;;;;4884038;29;19924;-81
2021/04/01 14:09:24;;;;;;;;;;;13.80;82.20;;;;;;4885636;29;19928;-80
2021/04/01 14:11:51;;;;;;;;;;;14.00;83.60;;;;;;4875374;29;19930;-80
2021/04/01 14:14:19;;;;;;;;;;;14.20;82.50;;;;;;4879252;29;20044;-81
2021/04/01 14:16:45;;;;;;;;;;;14.30;81.80;;;;;;4876077;29;20001;-79
2021/04/01 14:19:14;;;;;;;;;;;14.30;75.00;;;;;;4861218;29;19931;-80
2021/04/01 14:21:40;;;;;;;;;;;14.20;78.80;;;;;;4867028;29;19924;-80
2021/04/01 14:24:14;;;;;;;;;;;14.10;79.50;;;;;;5071986;23;19927;-82
2021/04/01 14:33:28;;;;;;;;;;;13.60;73.40;;;;;;4770263;30;19926;-82
2021/04/01 14:35:57;;;;;;;;;;;13.60;79.10;;;;;;4800847;29;20013;-82
2021/04/01 14:38:23;;;;;;;;;;;13.70;80.90;;;;;;4821275;29;19924;-82
2021/04/01 14:46:22;;;;;;;;;;;13.50;73.30;;;;;;4825153;29;19924;-83
2021/04/01 14:48:51;;;;;;;;;;;13.50;78.40;;;;;;4826053;29;19948;-82
2021/04/01 14:51:20;;;;;;;;;;;13.60;80.00;;;;;;4825636;29;19924;-83
2021/04/01 14:54:05;;;;;;;;;;;13.70;79.50;;;;;;4825233;29;19925;-83
2021/04/01 14:56:36;;;;;;;;;;;13.70;80.70;;;;;;4825676;29;19924;-83
2021/04/01 14:59:08;;;;;;;;;;;13.90;81.30;;;;;;4825400;29;20378;-83
2021/04/01 15:01:33;;;;;;;;;;;14.00;82.90;;;;;;4825731;29;19968;-83
2021/04/01 15:04:05;;;;;;;;;;;14.10;81.40;;;;;;4824557;29;20039;-82
2021/04/01 15:06:30;;;;;;;;;;;14.20;80.60;;;;;;4824999;29;19924;-83
2021/04/01 15:09:02;;;;;;;;;;;14.10;79.20;;;;;;4825533;29;19977;-82
2021/04/01 15:11:28;;;;;;;;;;;14.10;77.40;;;;;;4825676;29;19925;-81
2021/04/01 15:13:54;;;;;;;;;;;14.00;79.40;;;;;;4811326;29;20435;-80
2021/04/01 15:16:20;;;;;;;;;;;14.00;80.90;;;;;;4807198;29;19928;-81
2021/04/01 15:18:48;;;;;;;;;;;14.00;78.50;;;;;;4816205;29;19925;-81
2021/04/01 15:21:17;;;;;;;;;;;14.00;80.40;;;;;;4815753;29;20016;-81
2021/04/01 15:23:45;;;;;;;;;;;14.00;81.10;;;;;;4812537;29;19925;-80
2021/04/01 15:26:11;;;;;;;;;;;14.00;80.50;;;;;;4845514;29;19924;-81
2021/04/01 15:28:36;;;;;;;;;;;14.10;78.00;;;;;;4855795;29;19959;-81
2021/04/01 15:31:02;;;;;;;;;;;14.00;80.70;;;;;;4860630;29;20399;-81
2021/04/01 15:33:28;;;;;;;;;;;14.00;77.10;;;;;;4843145;29;19995;-81
2021/04/01 15:35:53;;;;;;;;;;;13.80;71.50;;;;;;4842413;29;20010;-81
2021/04/01 15:38:19;;;;;;;;;;;13.60;71.70;;;;;;4853156;29;20388;-80
2021/04/01 15:40:45;;;;;;;;;;;13.30;71.50;;;;;;4871231;29;19924;-81
2021/04/01 15:43:13;;;;;;;;;;;13.30;78.60;;;;;;4866620;29;20333;-81
2021/04/01 15:45:39;;;;;;;;;;;13.40;79.10;;;;;;4854301;29;19932;-81
2021/04/01 15:48:07;;;;;;;;;;;13.40;80.80;;;;;;4858120;29;20068;-81
2021/04/01 15:50:33;;;;;;;;;;;13.50;81.60;;;;;;4853325;29;20018;-81
2021/04/01 15:52:59;;;;;;;;;;;13.70;82.40;;;;;;4855488;29;19946;-81
2021/04/01 15:55:24;;;;;;;;;;;13.70;81.90;;;;;;4850399;29;20273;-81
2021/04/01 15:57:53;;;;;;;;;;;13.80;82.00;;;;;;4856625;29;19923;-82
2021/04/01 16:00:19;;;;;;;;;;;13.90;82.10;;;;;;4861404;29;20353;-82
2021/04/01 16:02:47;;;;;;;;;;;14.00;83.00;;;;;;4860724;29;19927;-81
2021/04/01 16:05:18;;;;;;;;;;;14.00;82.50;;;;;;4861419;29;20380;-85
2021/04/01 16:07:45;;;;;;;;;;;14.10;82.90;;;;;;4851459;29;19924;-82
2021/04/01 16:10:11;;;;;;;;;;;14.20;83.20;;;;;;4841482;29;19924;-82
2021/04/01 16:12:36;;;;;;;;;;;14.20;83.30;;;;;;4842529;29;19924;-82
2021/04/01 16:15:04;;;;;;;;;;;14.20;79.00;;;;;;4842881;29;19924;-82
2021/04/01 16:17:29;;;;;;;;;;;14.00;76.60;;;;;;4851498;29;19924;-81
2021/04/01 16:19:55;;;;;;;;;;;13.90;77.20;;;;;;4855807;29;19924;-81
2021/04/01 16:22:21;;;;;;;;;;;13.80;76.50;;;;;;4860776;29;19928;-82
2021/04/01 16:24:47;;;;;;;;;;;13.70;77.20;;;;;;4854552;29;19924;-83